createdAt,value
2022-12-19T00:00:50.736Z,-6.80
2022-12-19T00:03:29.664Z,-6.70
2022-12-19T00:06:03.783Z,-6.80
2022-12-19T00:08:34.528Z,-6.80
2022-12-19T00:11:05.077Z,-6.80
2022-12-19T00:13:40.981Z,-6.80
2022-12-19T00:16:14.659Z,-6.80
2022-12-19T00:18:48.818Z,-6.80
2022-12-19T00:21:20.375Z,-6.80
2022-12-19T00:23:50.181Z,-6.90
2022-12-19T00:26:22.232Z,-6.80
2022-12-19T00:28:55.942Z,-6.80
2022-12-19T00:31:28.266Z,-6.90
2022-12-19T00:33:58.037Z,-6.90
2022-12-19T00:36:29.433Z,-6.90
2022-12-19T00:38:58.852Z,-6.90
2022-12-19T00:41:31.033Z,-7.00
2022-12-19T00:44:04.075Z,-7.00
2022-12-19T00:46:34.852Z,-7.00
2022-12-19T00:49:06.167Z,-7.00
2022-12-19T00:51:37.920Z,-7.00
2022-12-19T00:54:08.006Z,-7.00
2022-12-19T00:56:38.530Z,-7.10
2022-12-19T00:59:10.796Z,-7.00
2022-12-19T01:01:42.474Z,-7.00
2022-12-19T01:04:32.587Z,-7.00
2022-12-19T01:07:07.892Z,-7.00
2022-12-19T01:09:38.441Z,-7.00
2022-12-19T01:12:25.317Z,-7.10
2022-12-19T01:15:04.242Z,-7.10
2022-12-19T01:17:43.483Z,-7.10
2022-12-19T01:20:15.679Z,-7.10
2022-12-19T01:22:46.087Z,-7.10
2022-12-19T01:25:16.233Z,-7.10
2022-12-19T01:27:45.887Z,-7.10
2022-12-19T01:30:16.766Z,-7.20
2022-12-19T01:32:46.648Z,-7.10
2022-12-19T01:35:21.706Z,-7.10
2022-12-19T01:37:55.888Z,-7.10
2022-12-19T01:40:37.396Z,-7.10
2022-12-19T01:43:07.800Z,-7.20
2022-12-19T01:45:45.348Z,-7.20
2022-12-19T01:48:22.283Z,-7.20
2022-12-19T01:51:01.097Z,-7.10
2022-12-19T01:53:46.432Z,-7.10
2022-12-19T01:56:21.321Z,-7.10
2022-12-19T01:58:56.131Z,-7.10
2022-12-19T02:01:50.805Z,-7.10
2022-12-19T02:04:23.027Z,-7.00
2022-12-19T02:06:53.527Z,-7.10
2022-12-19T02:09:25.931Z,-7.10
2022-12-19T02:11:55.853Z,-7.10
2022-12-19T02:14:26.003Z,-7.10
2022-12-19T02:17:02.252Z,-7.20
2022-12-19T02:20:04.804Z,-7.20
2022-12-19T02:22:45.194Z,-7.20
2022-12-19T02:25:44.859Z,-7.20
2022-12-19T02:28:46.485Z,-7.20
2022-12-19T02:31:22.711Z,-7.30
2022-12-19T02:33:57.466Z,-7.30
2022-12-19T02:36:32.478Z,-7.30
2022-12-19T02:39:11.008Z,-7.30
2022-12-19T02:41:46.446Z,-7.30
2022-12-19T02:44:20.653Z,-7.30
2022-12-19T02:46:54.219Z,-7.30
2022-12-19T02:49:30.740Z,-7.30
2022-12-19T02:52:10.236Z,-7.30
2022-12-19T02:54:44.933Z,-7.30
2022-12-19T02:57:21.499Z,-7.30
2022-12-19T03:00:03.344Z,-7.30
2022-12-19T03:02:43.483Z,-7.20
2022-12-19T03:05:22.462Z,-7.30
2022-12-19T03:07:57.668Z,-7.30
2022-12-19T03:10:35.453Z,-7.30
2022-12-19T03:13:11.490Z,-7.30
2022-12-19T03:15:42.932Z,-7.30
2022-12-19T03:18:14.572Z,-7.30
2022-12-19T03:20:50.098Z,-7.30
2022-12-19T03:23:20.309Z,-7.30
2022-12-19T03:25:52.647Z,-7.30
2022-12-19T03:28:28.258Z,-7.40
2022-12-19T03:31:00.824Z,-7.40
2022-12-19T03:33:36.065Z,-7.40
2022-12-19T03:36:08.996Z,-7.40
2022-12-19T03:38:41.032Z,-7.40
2022-12-19T03:41:12.648Z,-7.50
2022-12-19T03:43:44.005Z,-7.50
2022-12-19T03:46:17.064Z,-7.50
2022-12-19T03:48:50.471Z,-7.50
2022-12-19T03:51:31.401Z,-7.60
2022-12-19T03:54:04.522Z,-7.60
2022-12-19T03:56:41.990Z,-7.60
2022-12-19T03:59:15.803Z,-7.60
2022-12-19T04:01:47.129Z,-7.60
2022-12-19T04:04:19.000Z,-7.60
2022-12-19T04:06:49.966Z,-7.60
2022-12-19T04:09:24.320Z,-7.60
2022-12-19T04:11:56.173Z,-7.60
2022-12-19T04:14:29.752Z,-7.60
2022-12-19T04:17:08.112Z,-7.60
2022-12-19T04:19:45.315Z,-7.60
2022-12-19T04:22:19.626Z,-7.70
2022-12-19T04:24:50.733Z,-7.70
2022-12-19T04:27:22.136Z,-7.70
2022-12-19T04:29:56.280Z,-7.70
2022-12-19T04:32:27.202Z,-7.70
2022-12-19T04:34:59.414Z,-7.70
2022-12-19T04:37:29.674Z,-7.70
2022-12-19T04:39:59.909Z,-7.70
2022-12-19T04:42:29.456Z,-7.70
2022-12-19T04:44:59.242Z,-7.60
2022-12-19T04:47:28.819Z,-7.70
2022-12-19T04:50:00.190Z,-7.60
2022-12-19T04:52:29.697Z,-7.70
2022-12-19T04:54:59.433Z,-7.70
2022-12-19T04:57:31.458Z,-7.70
2022-12-19T05:00:01.064Z,-7.70
2022-12-19T05:02:30.715Z,-7.70
2022-12-19T05:05:02.571Z,-7.70
2022-12-19T05:07:32.546Z,-7.70
2022-12-19T05:10:02.824Z,-7.60
2022-12-19T05:12:32.127Z,-7.60
2022-12-19T05:15:02.230Z,-7.60
2022-12-19T05:17:31.512Z,-7.60
2022-12-19T05:20:02.697Z,-7.60
2022-12-19T05:22:32.079Z,-7.60
2022-12-19T05:25:01.852Z,-7.60
2022-12-19T05:27:31.194Z,-7.60
2022-12-19T05:30:01.679Z,-7.60
2022-12-19T05:32:33.017Z,-7.60
2022-12-19T05:35:04.218Z,-7.60
2022-12-19T05:37:33.655Z,-7.60
2022-12-19T05:40:03.265Z,-7.60
2022-12-19T05:42:32.671Z,-7.50
2022-12-19T05:45:02.301Z,-7.60
2022-12-19T05:47:31.567Z,-7.50
2022-12-19T05:50:02.789Z,-7.50
2022-12-19T05:52:31.901Z,-7.50
2022-12-19T05:55:01.579Z,-7.50
2022-12-19T05:57:31.509Z,-7.50
2022-12-19T06:00:01.150Z,-7.50
2022-12-19T06:02:34.525Z,-7.50
2022-12-19T06:05:06.487Z,-7.50
2022-12-19T06:07:36.331Z,-7.50
2022-12-19T06:10:07.663Z,-7.50
2022-12-19T06:12:36.728Z,-7.50
2022-12-19T06:15:06.946Z,-7.50
2022-12-19T06:17:36.198Z,-7.50
2022-12-19T06:20:08.837Z,-7.50
2022-12-19T06:22:38.265Z,-7.50
2022-12-19T06:25:08.691Z,-7.40
2022-12-19T06:27:38.014Z,-7.40
2022-12-19T06:30:09.390Z,-7.40
2022-12-19T06:32:38.859Z,-7.40
2022-12-19T06:35:10.779Z,-7.50
2022-12-19T06:37:40.113Z,-7.40
2022-12-19T06:40:32.484Z,-7.40
2022-12-19T06:43:00.861Z,-7.40
2022-12-19T06:45:30.735Z,-7.40
2022-12-19T06:48:00.105Z,-7.30
2022-12-19T06:50:31.514Z,-7.30
2022-12-19T06:53:01.630Z,-7.30
2022-12-19T06:55:31.962Z,-7.40
2022-12-19T06:58:01.369Z,-7.40
2022-12-19T07:00:31.544Z,-7.30
2022-12-19T07:03:01.594Z,-7.30
2022-12-19T07:05:33.290Z,-7.30
2022-12-19T07:08:02.308Z,-7.30
2022-12-19T07:10:32.147Z,-7.30
2022-12-19T07:13:01.529Z,-7.20
2022-12-19T07:15:33.737Z,-7.30
2022-12-19T07:18:05.502Z,-7.20
2022-12-19T07:20:44.784Z,-7.20
2022-12-19T07:23:19.095Z,-7.20
2022-12-19T07:25:48.887Z,-7.20
2022-12-19T07:28:18.708Z,-7.20
2022-12-19T07:30:48.431Z,-7.20
2022-12-19T07:33:21.424Z,-7.10
2022-12-19T07:35:53.844Z,-7.10
2022-12-19T07:38:23.407Z,-7.10
2022-12-19T07:40:53.149Z,-7.00
2022-12-19T07:43:22.521Z,-7.00
2022-12-19T07:45:56.515Z,-7.00
2022-12-19T07:48:25.998Z,-6.90
2022-12-19T07:50:57.711Z,-6.90
2022-12-19T07:53:27.336Z,-6.90
2022-12-19T07:55:57.107Z,-7.00
2022-12-19T07:58:26.558Z,-6.90
2022-12-19T08:00:57.780Z,-6.90
2022-12-19T08:03:28.634Z,-6.90
2022-12-19T08:06:04.462Z,-6.80
2022-12-19T08:08:35.635Z,-6.80
2022-12-19T08:11:09.329Z,-6.70
2022-12-19T08:13:44.795Z,-6.70
2022-12-19T08:16:16.632Z,-6.70
2022-12-19T08:18:46.077Z,-6.70
2022-12-19T08:21:17.169Z,-6.70
2022-12-19T08:23:47.401Z,-6.70
2022-12-19T08:26:22.112Z,-6.60
2022-12-19T08:28:51.613Z,-6.60
2022-12-19T08:31:25.341Z,-6.50
2022-12-19T08:33:55.414Z,-6.50
2022-12-19T08:36:27.393Z,-6.50
2022-12-19T08:38:57.173Z,-6.40
2022-12-19T08:41:27.840Z,-6.30
2022-12-19T08:43:58.074Z,-6.20
2022-12-19T08:46:27.925Z,-6.20
2022-12-19T08:48:58.029Z,-6.10
2022-12-19T08:51:29.214Z,-6.10
2022-12-19T08:53:58.523Z,-6.00
2022-12-19T08:56:28.440Z,-6.00
2022-12-19T08:58:58.602Z,-5.80
2022-12-19T09:01:27.933Z,-5.80
2022-12-19T09:05:01.182Z,-5.70
2022-12-19T09:06:51.623Z,-5.70
2022-12-19T09:09:21.517Z,-5.60
2022-12-19T09:11:50.774Z,-5.60
2022-12-19T09:14:20.485Z,-5.50
2022-12-19T09:16:51.285Z,-5.50
2022-12-19T09:19:21.067Z,-5.50
2022-12-19T09:21:51.835Z,-5.50
2022-12-19T09:24:21.601Z,-5.40
2022-12-19T09:26:50.887Z,-5.40
2022-12-19T09:29:22.115Z,-5.30
2022-12-19T09:31:56.173Z,-5.30
2022-12-19T09:34:37.724Z,-5.20
2022-12-19T09:37:16.366Z,-5.20
2022-12-19T09:39:47.913Z,-5.20
2022-12-19T09:42:40.724Z,-5.10
2022-12-19T09:45:31.745Z,-5.10
2022-12-19T09:48:03.097Z,-5.00
2022-12-19T09:50:46.777Z,-4.90
2022-12-19T09:53:25.518Z,-4.90
2022-12-19T09:55:56.299Z,-4.90
2022-12-19T09:58:33.693Z,-4.90
2022-12-19T10:01:09.204Z,-4.80
2022-12-19T10:03:41.879Z,-4.80
2022-12-19T10:07:12.797Z,-4.80
2022-12-19T10:11:36.766Z,-4.70
2022-12-19T10:12:45.782Z,-4.60
2022-12-19T10:15:22.756Z,-4.60
2022-12-19T10:18:07.194Z,-4.50
2022-12-19T10:20:39.930Z,-4.50
2022-12-19T10:23:35.866Z,-4.50
2022-12-19T10:26:12.618Z,-4.50
2022-12-19T10:28:54.534Z,-4.40
2022-12-19T10:31:30.872Z,-4.30
2022-12-19T10:34:06.964Z,-4.30
2022-12-19T10:39:44.525Z,-4.00
2022-12-19T10:42:21.133Z,-4.00
2022-12-19T10:44:52.545Z,-4.00
2022-12-19T10:47:21.489Z,-3.90
2022-12-19T10:49:51.111Z,-3.80
2022-12-19T10:52:48.765Z,-3.80
2022-12-19T10:55:45.428Z,-3.70
2022-12-19T10:58:22.975Z,-3.60
2022-12-19T11:01:06.834Z,-3.50
2022-12-19T11:03:37.340Z,-3.50
2022-12-19T11:06:08.225Z,-3.30
2022-12-19T11:08:38.506Z,-3.20
2022-12-19T11:12:49.673Z,-3.20
2022-12-19T11:18:25.753Z,-3.00
2022-12-19T11:23:58.018Z,-2.60
2022-12-19T11:29:33.019Z,-2.10
2022-12-19T11:30:41.129Z,-2.10
2022-12-19T11:30:45.503Z,-1.80
2022-12-19T11:30:59.590Z,-1.90
2022-12-19T11:34:52.011Z,-1.30
2022-12-19T11:37:28.792Z,-1.30
2022-12-19T11:40:04.071Z,-1.50
2022-12-19T11:42:39.329Z,-1.40
2022-12-19T11:45:16.241Z,-1.80
2022-12-19T11:47:54.618Z,-2.00
2022-12-19T11:50:28.216Z,-2.10
2022-12-19T11:53:18.648Z,-2.10
2022-12-19T11:55:53.487Z,-2.30
2022-12-19T11:58:26.721Z,-2.50
2022-12-19T12:01:03.278Z,-2.60
2022-12-19T12:04:02.599Z,-2.60
2022-12-19T12:06:35.631Z,-2.60
2022-12-19T12:10:22.954Z,-2.60
2022-12-19T12:19:39.163Z,-2.60
2022-12-19T12:27:29.148Z,-2.70
2022-12-19T12:31:21.024Z,-2.80
2022-12-19T12:31:40.619Z,-2.80
2022-12-19T12:31:52.918Z,-2.80
2022-12-19T12:32:01.911Z,-2.80
2022-12-19T12:32:02.998Z,-2.80
2022-12-19T12:36:56.033Z,-2.90
2022-12-19T12:39:24.291Z,-2.90
2022-12-19T12:42:06.471Z,-2.90
2022-12-19T12:44:44.760Z,-2.90
2022-12-19T12:47:20.746Z,-2.80
2022-12-19T12:49:55.451Z,-2.90
2022-12-19T12:52:34.178Z,-2.80
2022-12-19T12:55:06.269Z,-2.80
2022-12-19T12:57:38.442Z,-2.90
2022-12-19T13:00:23.012Z,-2.80
2022-12-19T13:02:57.320Z,-2.80
2022-12-19T13:05:42.829Z,-2.80
2022-12-19T13:08:47.839Z,-2.80
2022-12-19T13:11:56.346Z,-2.80
2022-12-19T13:14:50.497Z,-2.80
2022-12-19T13:17:25.823Z,-2.70
2022-12-19T13:19:58.274Z,-2.70
2022-12-19T13:22:43.564Z,-2.60
2022-12-19T13:25:50.884Z,-2.60
2022-12-19T13:28:44.719Z,-2.50
2022-12-19T13:31:22.808Z,-2.40
2022-12-19T13:34:19.265Z,-2.40
2022-12-19T13:39:50.087Z,-2.40
2022-12-19T13:40:11.256Z,-2.30
2022-12-19T13:43:11.344Z,-2.30
2022-12-19T13:45:49.017Z,-2.30
2022-12-19T13:48:24.089Z,-2.30
2022-12-19T13:50:54.692Z,-2.20
2022-12-19T13:53:26.382Z,-2.20
2022-12-19T13:56:02.795Z,-2.20
2022-12-19T13:58:35.041Z,-2.20
2022-12-19T14:01:20.137Z,-2.10
2022-12-19T14:03:53.642Z,-2.20
2022-12-19T14:06:26.275Z,-2.20
2022-12-19T14:11:26.204Z,-2.20
2022-12-19T14:13:38.872Z,-2.10
2022-12-19T14:15:12.597Z,-2.10
2022-12-19T14:17:50.224Z,-2.00
2022-12-19T14:20:57.479Z,-2.10
2022-12-19T14:23:12.621Z,-2.10
2022-12-19T14:28:15.673Z,-2.10
2022-12-19T14:28:54.410Z,-2.20
2022-12-19T14:31:26.663Z,-2.10
2022-12-19T14:34:19.076Z,-2.10
2022-12-19T14:36:53.604Z,-2.10
2022-12-19T14:39:29.168Z,-2.10
2022-12-19T14:42:48.323Z,-2.00
2022-12-19T14:52:25.200Z,-2.10
2022-12-19T14:52:50.775Z,-2.10
2022-12-19T14:54:37.230Z,-2.00
2022-12-19T14:57:25.492Z,-2.10
2022-12-19T15:01:07.553Z,-2.10
2022-12-19T15:03:24.188Z,-2.10
2022-12-19T15:07:04.840Z,-2.00
2022-12-19T15:11:00.252Z,-2.00
2022-12-19T15:14:47.190Z,-2.10
2022-12-19T15:15:19.547Z,-2.00
2022-12-19T15:17:51.214Z,-2.00
2022-12-19T15:20:20.833Z,-2.00
2022-12-19T15:22:50.504Z,-2.00
2022-12-19T15:26:01.323Z,-2.00
2022-12-19T15:28:16.067Z,-2.00
2022-12-19T15:30:49.037Z,-1.90
2022-12-19T15:33:19.171Z,-1.90
2022-12-19T15:35:48.467Z,-2.00
2022-12-19T15:38:18.143Z,-2.00
2022-12-19T15:40:49.475Z,-2.00
2022-12-19T15:44:01.253Z,-2.00
2022-12-19T15:46:13.136Z,-1.90
2022-12-19T15:48:47.425Z,-1.90
2022-12-19T15:51:17.281Z,-1.90
2022-12-19T15:53:47.832Z,-1.90
2022-12-19T15:56:28.927Z,-1.90
2022-12-19T15:59:00.262Z,-1.80
2022-12-19T16:01:32.360Z,-1.80
2022-12-19T16:04:03.997Z,-1.80
2022-12-19T16:06:33.616Z,-1.80
2022-12-19T16:09:03.252Z,-1.70
2022-12-19T16:11:34.034Z,-1.70
2022-12-19T16:14:03.969Z,-1.70
2022-12-19T16:16:33.341Z,-1.70
2022-12-19T16:19:03.614Z,-1.70
2022-12-19T16:21:34.650Z,-1.70
2022-12-19T16:24:04.494Z,-1.70
2022-12-19T16:26:39.172Z,-1.60
2022-12-19T16:29:18.824Z,-1.60
2022-12-19T16:31:48.459Z,-1.70
2022-12-19T16:34:20.815Z,-1.60
2022-12-19T16:36:50.306Z,-1.60
2022-12-19T16:39:20.323Z,-1.60
2022-12-19T16:41:51.422Z,-1.60
2022-12-19T16:44:22.963Z,-1.60
2022-12-19T16:46:53.394Z,-1.60
2022-12-19T16:49:24.450Z,-1.60
2022-12-19T16:51:54.012Z,-1.60
2022-12-19T16:54:24.121Z,-1.60
2022-12-19T16:56:55.920Z,-1.50
2022-12-19T16:59:29.542Z,-1.50
2022-12-19T17:02:00.388Z,-1.40
2022-12-19T17:04:31.116Z,-1.30
2022-12-19T17:07:01.379Z,-1.40
2022-12-19T17:09:31.370Z,-1.30
2022-12-19T17:12:03.500Z,-1.40
2022-12-19T17:14:34.036Z,-1.40
2022-12-19T17:17:03.584Z,-1.40
2022-12-19T17:19:38.466Z,-1.30
2022-12-19T17:22:13.697Z,-1.30
2022-12-19T17:24:44.673Z,-1.30
2022-12-19T17:27:17.639Z,-1.30
2022-12-19T17:29:48.059Z,-1.40
2022-12-19T17:32:23.860Z,-1.40
2022-12-19T17:34:54.621Z,-1.50
2022-12-19T17:37:24.135Z,-1.40
2022-12-19T17:39:53.928Z,-1.40
2022-12-19T17:42:28.779Z,-1.40
2022-12-19T17:45:01.790Z,-1.40
2022-12-19T17:47:31.807Z,-1.40
2022-12-19T17:50:01.924Z,-1.40
2022-12-19T17:52:35.932Z,-1.40
2022-12-19T17:55:20.250Z,-1.30
2022-12-19T17:57:51.678Z,-1.40
2022-12-19T18:00:30.117Z,-1.40
2022-12-19T18:03:05.324Z,-1.30
2022-12-19T18:05:37.413Z,-1.30
2022-12-19T18:08:18.128Z,-1.30
2022-12-19T18:10:48.254Z,-1.30
2022-12-19T18:13:19.055Z,-1.20
2022-12-19T18:15:48.983Z,-1.30
2022-12-19T18:18:24.057Z,-1.30
2022-12-19T18:20:53.965Z,-1.40
2022-12-19T18:23:25.101Z,-1.40
2022-12-19T18:26:01.068Z,-1.40
2022-12-19T18:28:32.928Z,-1.30
2022-12-19T18:31:05.494Z,-1.30
2022-12-19T18:33:40.500Z,-1.30
2022-12-19T18:36:16.830Z,-1.30
2022-12-19T18:38:46.243Z,-1.30
2022-12-19T18:41:16.183Z,-1.30
2022-12-19T18:43:47.523Z,-1.30
2022-12-19T18:46:21.037Z,-1.30
2022-12-19T18:48:50.509Z,-1.30
2022-12-19T18:51:23.456Z,-1.30
2022-12-19T18:53:53.363Z,-1.30
2022-12-19T18:56:23.098Z,-1.20
2022-12-19T18:58:53.971Z,-1.20
2022-12-19T19:01:24.330Z,-1.20
2022-12-19T19:03:56.847Z,-1.20
2022-12-19T19:06:32.945Z,-1.20
2022-12-19T19:09:05.872Z,-1.20
2022-12-19T19:11:36.824Z,-1.20
2022-12-19T19:14:07.558Z,-1.20
2022-12-19T19:16:37.912Z,-1.20
2022-12-19T19:19:10.492Z,-1.20
2022-12-19T19:21:41.968Z,-1.20
2022-12-19T19:24:14.336Z,-1.20
2022-12-19T19:26:44.205Z,-1.20
2022-12-19T19:29:15.218Z,-1.20
2022-12-19T19:31:47.800Z,-1.20
2022-12-19T19:34:22.442Z,-1.20
2022-12-19T19:36:56.308Z,-1.20
2022-12-19T19:39:27.979Z,-1.20
2022-12-19T19:41:57.953Z,-1.20
2022-12-19T19:44:28.843Z,-1.30
2022-12-19T19:46:58.641Z,-1.30
2022-12-19T19:49:28.127Z,-1.30
2022-12-19T19:52:02.448Z,-1.20
2022-12-19T19:54:32.513Z,-1.30
2022-12-19T19:57:02.633Z,-1.30
2022-12-19T19:59:33.814Z,-1.20
2022-12-19T20:02:03.738Z,-1.10
2022-12-19T20:04:33.373Z,-1.10
2022-12-19T20:07:03.587Z,-1.10
2022-12-19T20:09:33.026Z,-1.10
2022-12-19T20:12:03.226Z,-1.10
2022-12-19T20:14:34.008Z,-1.10
2022-12-19T20:17:04.012Z,-1.10
2022-12-19T20:19:33.679Z,-1.00
2022-12-19T20:22:03.671Z,-0.90
2022-12-19T20:24:33.526Z,-0.90
2022-12-19T20:27:05.347Z,-0.90
2022-12-19T20:29:36.928Z,-0.80
2022-12-19T20:32:07.410Z,-0.80
2022-12-19T20:34:36.811Z,-0.70
2022-12-19T20:37:06.552Z,-0.70
2022-12-19T20:39:36.287Z,-0.70
2022-12-19T20:42:06.797Z,-0.70
2022-12-19T20:44:37.736Z,-0.70
2022-12-19T20:47:07.657Z,-0.70
2022-12-19T20:49:37.153Z,-0.60
2022-12-19T20:52:06.979Z,-0.60
2022-12-19T20:54:36.375Z,-0.60
2022-12-19T20:57:06.121Z,-0.60
2022-12-19T20:59:37.054Z,-0.50
2022-12-19T21:02:07.351Z,-0.50
2022-12-19T21:04:37.541Z,-0.40
2022-12-19T21:07:07.489Z,-0.50
2022-12-19T21:09:37.406Z,-0.50
2022-12-19T21:12:07.601Z,-0.40
2022-12-19T21:14:38.378Z,-0.40
2022-12-19T21:17:08.013Z,-0.30
2022-12-19T21:19:37.669Z,-0.30
2022-12-19T21:22:07.891Z,-0.30
2022-12-19T21:24:37.300Z,-0.20
2022-12-19T21:27:06.944Z,-0.20
2022-12-19T21:29:37.873Z,-0.10
2022-12-19T21:32:10.966Z,-0.10
2022-12-19T21:34:42.845Z,-0.10
2022-12-19T21:37:12.823Z,-0.10
2022-12-19T21:39:42.111Z,0.00
2022-12-19T21:42:12.047Z,0.00
2022-12-19T21:44:42.782Z,0.10
2022-12-19T21:47:12.095Z,0.10
2022-12-19T21:49:42.095Z,0.10
2022-12-19T21:52:12.122Z,0.10
2022-12-19T21:54:41.650Z,0.20
2022-12-19T21:57:11.902Z,0.20
2022-12-19T21:59:42.723Z,0.20
2022-12-19T22:02:13.339Z,0.30
2022-12-19T22:04:42.651Z,0.30
2022-12-19T22:07:12.486Z,0.40
2022-12-19T22:09:41.774Z,0.40
2022-12-19T22:12:14.107Z,0.40
2022-12-19T22:14:45.278Z,0.50
2022-12-19T22:17:16.404Z,0.50
2022-12-19T22:19:46.709Z,0.50
2022-12-19T22:22:16.351Z,0.50
2022-12-19T22:24:45.792Z,0.60
2022-12-19T22:27:15.625Z,0.60
2022-12-19T22:29:46.350Z,0.60
2022-12-19T22:32:15.903Z,0.70
2022-12-19T22:34:48.424Z,0.70
2022-12-19T22:37:18.228Z,0.70
2022-12-19T22:39:47.505Z,0.80
2022-12-19T22:42:17.477Z,0.80
2022-12-19T22:44:48.188Z,0.80
2022-12-19T22:47:17.493Z,0.80
2022-12-19T22:49:46.927Z,0.90
2022-12-19T22:52:16.597Z,0.90
2022-12-19T22:54:46.254Z,0.90
2022-12-19T22:57:15.963Z,0.90
2022-12-19T22:59:45.461Z,1.00
2022-12-19T23:02:17.104Z,0.90
2022-12-19T23:04:46.633Z,1.00
2022-12-19T23:07:17.802Z,1.10
2022-12-19T23:09:47.354Z,1.10
2022-12-19T23:12:17.484Z,1.10
2022-12-19T23:14:46.973Z,1.10
2022-12-19T23:17:18.322Z,1.10
2022-12-19T23:19:47.628Z,1.10
2022-12-19T23:22:17.384Z,1.20
2022-12-19T23:24:48.487Z,1.30
2022-12-19T23:27:18.291Z,1.30
2022-12-19T23:29:47.781Z,1.30
2022-12-19T23:32:19.001Z,1.30
2022-12-19T23:34:48.319Z,1.40
2022-12-19T23:37:18.033Z,1.40
2022-12-19T23:39:47.297Z,1.40
2022-12-19T23:42:17.280Z,1.50
2022-12-19T23:44:46.592Z,1.50
2022-12-19T23:47:18.119Z,1.60
2022-12-19T23:49:47.511Z,1.60
2022-12-19T23:52:17.418Z,1.60
2022-12-19T23:54:47.819Z,1.70
2022-12-19T23:57:17.686Z,1.80
2022-12-19T23:59:47.102Z,1.80
